San Francisco International, CA

11:22 PM PDT on October 21, 2014 (GMT -0700)
Metro Oakland International | Change Station
CLOSE
Current Station
Airport
Location: Oakland,
Elevation: 7 ft
Nearby Weather Stations

Elev 7 ft 37.72 °N, 122.23 °W | Updated 29 minutes ago

Clear
Clear
59 °F
Feels Like 59 °F
N
0
Wind Variable Wind from North

Today
High -- | Low -- °F
--% Chance of Precip.
Yesterday
High -- | Low -- °F
Precip. -- in
7:23 AM 6:24 PM
Waning Crescent, 3% visible
Pressure 30.05 in
Visibility 10.0 miles
Clouds Clear
Dew Point 50 °F
Humidity 72%
Rainfall 0.00 in
Snow Depth Not available.
UV 0 out of 12
Pollen 2.30 out of 12
Ozone Good
Flu Activity Sporadic
METAR KOAK 220553Z 00000KT 10SM CLR 15/10 A3005 RMK AO2 SLP174 T01500100 10194 20150 51005

More Conditions Fewer Conditions

Pressure 30.05 in
Visibility 10.0 miles
Clouds Clear
Dew Point 50 °F
Humidity 72%
Rainfall 0.00 in
Snow Depth Not available.
UV 0 out of 12
Pollen 2.30 out of 12
Ozone Good
Flu Activity Sporadic
METAR KOAK 220553Z 00000KT 10SM CLR 15/10 A3005 RMK AO2 SLP174 T01500100 10194 20150 51005

More Conditions Fewer Conditions

10-Day Weather Forecast

Almanac

Astronomy

Oct. 21, 2014 Rise Set
Actual Time 7:23 AM PDT 6:24 PM PDT
Civil Twilight 6:56 AM PDT 6:50 PM PDT
Nautical Twilight 6:26 AM PDT 7:21 PM PDT
Astronomical Twilight 5:56 AM PDT 7:51 PM PDT
Moon 5:15 AM PDT (10/21) 5:19 PM PDT (10/21)
Length of Visible Light 11h 53m
Length of Day
11h 00m
Tomorrow will be 2m 15s shorter.
Waning Crescent, 3% of the Moon is Illuminated
Oct 22
Waning Crescent
Oct 23
New
Oct 30
First Quarter
Nov 6
Full
Nov 14
Last Quarter

Community

WunderPhotos

Upload Photos

1,763,885 photos uploaded!

Nearby

Air Quality

  Air Quality AQ Index Pollutant
Yesterday Good
OZONE
Yesterday Good
PM2.5
Current Good
OZONE
Tuesday Good
PM2.5
Wednesday Good
OZONE
Thursday Good
PM2.5
Friday Good
PM2.5
Saturday Good
PM2.5
Sunday Good
PM2.5

Snow Depth

Station Depth Elevation
Carson Pass 0 in 8500 ft
Blue Lakes 0 in 8000 ft
Forestdale Creek 1 in 8029 ft
Echo Peak 1 in 7800 ft
Rubicon #2 1 in 7500 ft

Earthquake Activity

City Distance Mag. Time & Date
No recent earthquake activity has been reported nearby.
Minimum magnitude displayed is 2.5.

Coastal Water Temperatures

Place Temperature
No Stations Reporting

Nearby Weather Stations